sensor_id;sensor_type;location;lat;lon;timestamp;P1;durP1;ratioP1;P2;durP2;ratioP2
13443;SDS011;6794;59.218;18.218;2022-07-23T00:02:21;12.27;;;8.70;;
13443;SDS011;6794;59.218;18.218;2022-07-23T00:04:47;15.15;;;10.15;;
13443;SDS011;6794;59.218;18.218;2022-07-23T00:07:13;16.17;;;9.30;;
13443;SDS011;6794;59.218;18.218;2022-07-23T00:09:39;13.63;;;9.70;;
13443;SDS011;6794;59.218;18.218;2022-07-23T00:12:05;13.43;;;8.07;;
13443;SDS011;6794;59.218;18.218;2022-07-23T00:14:31;16.33;;;8.83;;
13443;SDS011;6794;59.218;18.218;2022-07-23T00:16:57;15.23;;;8.67;;
13443;SDS011;6794;59.218;18.218;2022-07-23T00:19:23;17.23;;;8.37;;
13443;SDS011;6794;59.218;18.218;2022-07-23T00:21:49;14.37;;;8.30;;
13443;SDS011;6794;59.218;18.218;2022-07-23T00:24:15;14.30;;;8.97;;
13443;SDS011;6794;59.218;18.218;2022-07-23T00:26:41;17.67;;;8.47;;
13443;SDS011;6794;59.218;18.218;2022-07-23T00:29:07;17.83;;;8.53;;
13443;SDS011;6794;59.218;18.218;2022-07-23T00:31:33;14.03;;;8.57;;
13443;SDS011;6794;59.218;18.218;2022-07-23T00:33:59;15.07;;;8.20;;
13443;SDS011;6794;59.218;18.218;2022-07-23T00:36:28;15.70;;;9.07;;
13443;SDS011;6794;59.218;18.218;2022-07-23T00:38:56;15.43;;;9.23;;
13443;SDS011;6794;59.218;18.218;2022-07-23T00:41:22;12.07;;;8.70;;
13443;SDS011;6794;59.218;18.218;2022-07-23T00:43:48;10.63;;;8.23;;
13443;SDS011;6794;59.218;18.218;2022-07-23T00:46:21;12.67;;;7.83;;
13443;SDS011;6794;59.218;18.218;2022-07-23T00:48:47;16.23;;;8.47;;
13443;SDS011;6794;59.218;18.218;2022-07-23T00:51:14;12.47;;;8.60;;
13443;SDS011;6794;59.218;18.218;2022-07-23T00:53:41;19.27;;;9.07;;
13443;SDS011;6794;59.218;18.218;2022-07-23T00:56:07;16.40;;;9.30;;
13443;SDS011;6794;59.218;18.218;2022-07-23T00:58:34;21.30;;;11.73;;
13443;SDS011;6794;59.218;18.218;2022-07-23T01:01:01;17.63;;;10.20;;
13443;SDS011;6794;59.218;18.218;2022-07-23T01:03:27;21.33;;;10.60;;
13443;SDS011;6794;59.218;18.218;2022-07-23T01:05:53;19.20;;;10.23;;
13443;SDS011;6794;59.218;18.218;2022-07-23T01:08:19;22.13;;;11.10;;
13443;SDS011;6794;59.218;18.218;2022-07-23T01:10:46;22.20;;;10.70;;
13443;SDS011;6794;59.218;18.218;2022-07-23T01:13:12;18.17;;;10.70;;
13443;SDS011;6794;59.218;18.218;2022-07-23T01:15:39;17.13;;;10.67;;
13443;SDS011;6794;59.218;18.218;2022-07-23T01:18:05;23.77;;;10.83;;
13443;SDS011;6794;59.218;18.218;2022-07-23T01:20:32;20.77;;;11.63;;
13443;SDS011;6794;59.218;18.218;2022-07-23T01:22:58;18.80;;;11.37;;
13443;SDS011;6794;59.218;18.218;2022-07-23T01:25:24;23.47;;;11.03;;
13443;SDS011;6794;59.218;18.218;2022-07-23T01:27:53;24.03;;;10.83;;
13443;SDS011;6794;59.218;18.218;2022-07-23T01:30:19;24.10;;;10.17;;
13443;SDS011;6794;59.218;18.218;2022-07-23T01:32:45;18.57;;;9.03;;
13443;SDS011;6794;59.218;18.218;2022-07-23T01:35:12;25.20;;;10.57;;
13443;SDS011;6794;59.218;18.218;2022-07-23T01:37:38;23.63;;;9.63;;
13443;SDS011;6794;59.218;18.218;2022-07-23T01:40:04;20.67;;;8.67;;
13443;SDS011;6794;59.218;18.218;2022-07-23T01:42:31;24.27;;;9.17;;
13443;SDS011;6794;59.218;18.218;2022-07-23T01:44:57;21.60;;;8.20;;
13443;SDS011;6794;59.218;18.218;2022-07-23T01:47:23;17.83;;;7.57;;
13443;SDS011;6794;59.218;18.218;2022-07-23T01:49:49;23.27;;;8.80;;
13443;SDS011;6794;59.218;18.218;2022-07-23T01:52:15;26.97;;;9.73;;
13443;SDS011;6794;59.218;18.218;2022-07-23T01:54:41;29.50;;;9.97;;
13443;SDS011;6794;59.218;18.218;2022-07-23T01:57:07;24.93;;;9.63;;
13443;SDS011;6794;59.218;18.218;2022-07-23T01:59:34;35.77;;;9.10;;
13443;SDS011;6794;59.218;18.218;2022-07-23T02:02:00;29.30;;;10.17;;
13443;SDS011;6794;59.218;18.218;2022-07-23T02:04:26;31.10;;;9.60;;
13443;SDS011;6794;59.218;18.218;2022-07-23T02:06:53;28.10;;;9.60;;
13443;SDS011;6794;59.218;18.218;2022-07-23T02:09:19;33.70;;;10.23;;
13443;SDS011;6794;59.218;18.218;2022-07-23T02:11:45;32.30;;;11.27;;
13443;SDS011;6794;59.218;18.218;2022-07-23T02:14:11;37.97;;;12.20;;
13443;SDS011;6794;59.218;18.218;2022-07-23T02:16:37;27.47;;;11.63;;
13443;SDS011;6794;59.218;18.218;2022-07-23T02:19:04;34.13;;;11.83;;
13443;SDS011;6794;59.218;18.218;2022-07-23T02:21:30;39.10;;;11.87;;
13443;SDS011;6794;59.218;18.218;2022-07-23T02:23:56;34.23;;;12.30;;
13443;SDS011;6794;59.218;18.218;2022-07-23T02:26:22;36.40;;;12.97;;
13443;SDS011;6794;59.218;18.218;2022-07-23T02:28:48;34.70;;;13.13;;
13443;SDS011;6794;59.218;18.218;2022-07-23T02:31:14;30.90;;;10.17;;
13443;SDS011;6794;59.218;18.218;2022-07-23T02:33:40;34.50;;;11.20;;
13443;SDS011;6794;59.218;18.218;2022-07-23T02:36:06;34.93;;;11.43;;
13443;SDS011;6794;59.218;18.218;2022-07-23T02:38:32;34.37;;;12.47;;
13443;SDS011;6794;59.218;18.218;2022-07-23T02:40:58;31.40;;;11.60;;
13443;SDS011;6794;59.218;18.218;2022-07-23T02:43:24;31.07;;;11.63;;
13443;SDS011;6794;59.218;18.218;2022-07-23T02:45:50;30.40;;;11.50;;
13443;SDS011;6794;59.218;18.218;2022-07-23T02:48:16;24.57;;;11.17;;
13443;SDS011;6794;59.218;18.218;2022-07-23T02:50:42;31.30;;;10.83;;
13443;SDS011;6794;59.218;18.218;2022-07-23T02:53:08;25.57;;;10.13;;
13443;SDS011;6794;59.218;18.218;2022-07-23T02:55:34;24.47;;;10.90;;
13443;SDS011;6794;59.218;18.218;2022-07-23T02:58:00;23.90;;;10.00;;
13443;SDS011;6794;59.218;18.218;2022-07-23T03:00:27;20.10;;;8.90;;
13443;SDS011;6794;59.218;18.218;2022-07-23T03:02:53;20.83;;;8.37;;
13443;SDS011;6794;59.218;18.218;2022-07-23T03:05:19;22.47;;;9.97;;
13443;SDS011;6794;59.218;18.218;2022-07-23T03:07:45;20.63;;;8.27;;
13443;SDS011;6794;59.218;18.218;2022-07-23T03:10:11;15.90;;;8.17;;
13443;SDS011;6794;59.218;18.218;2022-07-23T03:12:37;18.33;;;8.47;;
13443;SDS011;6794;59.218;18.218;2022-07-23T03:15:03;19.37;;;8.00;;
13443;SDS011;6794;59.218;18.218;2022-07-23T03:17:29;16.40;;;7.63;;
13443;SDS011;6794;59.218;18.218;2022-07-23T03:19:55;18.10;;;8.07;;
13443;SDS011;6794;59.218;18.218;2022-07-23T03:22:21;17.90;;;6.90;;
13443;SDS011;6794;59.218;18.218;2022-07-23T03:24:47;17.90;;;6.77;;
13443;SDS011;6794;59.218;18.218;2022-07-23T03:27:23;15.90;;;7.80;;
13443;SDS011;6794;59.218;18.218;2022-07-23T03:29:51;19.20;;;7.90;;
13443;SDS011;6794;59.218;18.218;2022-07-23T03:32:17;17.63;;;7.17;;
13443;SDS011;6794;59.218;18.218;2022-07-23T03:34:43;17.93;;;7.60;;
13443;SDS011;6794;59.218;18.218;2022-07-23T03:37:09;17.30;;;7.03;;
13443;SDS011;6794;59.218;18.218;2022-07-23T03:39:35;18.93;;;8.13;;
13443;SDS011;6794;59.218;18.218;2022-07-23T03:42:01;18.93;;;7.77;;
13443;SDS011;6794;59.218;18.218;2022-07-23T03:44:27;18.37;;;6.57;;
13443;SDS011;6794;59.218;18.218;2022-07-23T03:46:53;14.70;;;6.37;;
13443;SDS011;6794;59.218;18.218;2022-07-23T03:49:19;11.80;;;5.43;;
13443;SDS011;6794;59.218;18.218;2022-07-23T03:51:45;14.57;;;6.10;;
13443;SDS011;6794;59.218;18.218;2022-07-23T03:54:11;11.80;;;5.43;;
13443;SDS011;6794;59.218;18.218;2022-07-23T03:56:37;11.57;;;5.13;;
13443;SDS011;6794;59.218;18.218;2022-07-23T03:59:03;8.27;;;4.70;;
13443;SDS011;6794;59.218;18.218;2022-07-23T04:01:30;9.37;;;4.77;;
13443;SDS011;6794;59.218;18.218;2022-07-23T04:03:56;4.70;;;3.67;;
13443;SDS011;6794;59.218;18.218;2022-07-23T04:06:22;4.07;;;2.40;;
13443;SDS011;6794;59.218;18.218;2022-07-23T04:08:48;4.20;;;2.77;;
13443;SDS011;6794;59.218;18.218;2022-07-23T04:11:14;4.80;;;2.87;;
13443;SDS011;6794;59.218;18.218;2022-07-23T04:13:40;4.33;;;2.60;;
13443;SDS011;6794;59.218;18.218;2022-07-23T04:16:06;4.47;;;2.50;;
13443;SDS011;6794;59.218;18.218;2022-07-23T04:18:32;3.77;;;2.50;;
13443;SDS011;6794;59.218;18.218;2022-07-23T04:20:58;4.90;;;2.97;;
13443;SDS011;6794;59.218;18.218;2022-07-23T04:23:24;5.47;;;2.07;;
13443;SDS011;6794;59.218;18.218;2022-07-23T04:25:50;3.93;;;2.30;;
13443;SDS011;6794;59.218;18.218;2022-07-23T04:28:16;3.00;;;2.43;;
13443;SDS011;6794;59.218;18.218;2022-07-23T04:30:42;3.57;;;2.40;;
13443;SDS011;6794;59.218;18.218;2022-07-23T04:33:08;2.37;;;1.97;;
13443;SDS011;6794;59.218;18.218;2022-07-23T04:35:35;4.23;;;2.47;;
13443;SDS011;6794;59.218;18.218;2022-07-23T04:38:01;3.27;;;2.13;;
13443;SDS011;6794;59.218;18.218;2022-07-23T04:40:27;3.80;;;2.33;;
13443;SDS011;6794;59.218;18.218;2022-07-23T04:42:54;3.00;;;2.00;;
13443;SDS011;6794;59.218;18.218;2022-07-23T04:45:21;3.10;;;1.67;;
13443;SDS011;6794;59.218;18.218;2022-07-23T04:47:48;3.77;;;2.10;;
13443;SDS011;6794;59.218;18.218;2022-07-23T04:50:15;2.93;;;1.60;;
13443;SDS011;6794;59.218;18.218;2022-07-23T04:52:44;3.17;;;2.07;;
13443;SDS011;6794;59.218;18.218;2022-07-23T04:55:10;3.13;;;1.93;;
13443;SDS011;6794;59.218;18.218;2022-07-23T04:57:36;3.30;;;1.93;;
13443;SDS011;6794;59.218;18.218;2022-07-23T05:00:03;2.90;;;2.07;;
13443;SDS011;6794;59.218;18.218;2022-07-23T05:02:29;3.13;;;2.00;;
13443;SDS011;6794;59.218;18.218;2022-07-23T05:04:55;2.00;;;1.60;;
13443;SDS011;6794;59.218;18.218;2022-07-23T05:07:21;3.57;;;2.03;;
13443;SDS011;6794;59.218;18.218;2022-07-23T05:09:47;2.63;;;1.87;;
13443;SDS011;6794;59.218;18.218;2022-07-23T05:12:13;2.27;;;1.67;;
13443;SDS011;6794;59.218;18.218;2022-07-23T05:14:39;4.10;;;1.90;;
13443;SDS011;6794;59.218;18.218;2022-07-23T05:17:05;2.30;;;1.47;;
13443;SDS011;6794;59.218;18.218;2022-07-23T05:19:33;3.47;;;1.93;;
13443;SDS011;6794;59.218;18.218;2022-07-23T05:21:59;2.10;;;1.60;;
13443;SDS011;6794;59.218;18.218;2022-07-23T05:24:25;2.90;;;1.60;;
13443;SDS011;6794;59.218;18.218;2022-07-23T05:26:51;2.50;;;1.63;;
13443;SDS011;6794;59.218;18.218;2022-07-23T05:29:17;2.93;;;1.67;;
13443;SDS011;6794;59.218;18.218;2022-07-23T05:31:43;1.40;;;1.20;;
13443;SDS011;6794;59.218;18.218;2022-07-23T05:34:09;2.03;;;1.70;;
13443;SDS011;6794;59.218;18.218;2022-07-23T05:36:35;1.87;;;1.60;;
13443;SDS011;6794;59.218;18.218;2022-07-23T05:39:02;5.80;;;1.83;;
13443;SDS011;6794;59.218;18.218;2022-07-23T05:41:28;3.97;;;1.50;;
13443;SDS011;6794;59.218;18.218;2022-07-23T05:43:54;2.57;;;1.57;;
13443;SDS011;6794;59.218;18.218;2022-07-23T05:46:20;2.27;;;1.50;;
13443;SDS011;6794;59.218;18.218;2022-07-23T05:48:46;2.00;;;1.60;;
13443;SDS011;6794;59.218;18.218;2022-07-23T05:51:23;3.77;;;1.70;;
13443;SDS011;6794;59.218;18.218;2022-07-23T05:53:50;2.23;;;1.60;;
13443;SDS011;6794;59.218;18.218;2022-07-23T05:56:16;3.67;;;1.60;;
13443;SDS011;6794;59.218;18.218;2022-07-23T05:58:42;2.60;;;1.50;;
13443;SDS011;6794;59.218;18.218;2022-07-23T06:01:08;2.20;;;1.70;;
13443;SDS011;6794;59.218;18.218;2022-07-23T06:03:36;3.23;;;1.77;;
13443;SDS011;6794;59.218;18.218;2022-07-23T06:06:02;3.33;;;1.93;;
13443;SDS011;6794;59.218;18.218;2022-07-23T06:08:28;2.27;;;1.60;;
13443;SDS011;6794;59.218;18.218;2022-07-23T06:10:55;3.07;;;1.67;;
13443;SDS011;6794;59.218;18.218;2022-07-23T06:13:21;3.07;;;1.73;;
13443;SDS011;6794;59.218;18.218;2022-07-23T06:15:47;2.40;;;1.70;;
13443;SDS011;6794;59.218;18.218;2022-07-23T06:18:13;2.60;;;1.90;;
13443;SDS011;6794;59.218;18.218;2022-07-23T06:20:39;2.40;;;1.70;;
13443;SDS011;6794;59.218;18.218;2022-07-23T06:23:05;2.53;;;1.77;;
13443;SDS011;6794;59.218;18.218;2022-07-23T06:25:31;2.67;;;1.90;;
13443;SDS011;6794;59.218;18.218;2022-07-23T06:27:57;2.30;;;1.87;;
13443;SDS011;6794;59.218;18.218;2022-07-23T06:30:23;3.47;;;1.83;;
13443;SDS011;6794;59.218;18.218;2022-07-23T06:32:49;2.20;;;1.60;;
13443;SDS011;6794;59.218;18.218;2022-07-23T06:35:15;3.43;;;1.80;;
13443;SDS011;6794;59.218;18.218;2022-07-23T06:37:42;1.90;;;1.80;;
13443;SDS011;6794;59.218;18.218;2022-07-23T06:40:08;4.50;;;1.67;;
13443;SDS011;6794;59.218;18.218;2022-07-23T06:42:36;2.00;;;1.83;;
13443;SDS011;6794;59.218;18.218;2022-07-23T06:45:06;3.35;;;2.00;;
13443;SDS011;6794;59.218;18.218;2022-07-23T06:47:32;2.07;;;1.80;;
13443;SDS011;6794;59.218;18.218;2022-07-23T06:49:58;1.97;;;1.70;;
13443;SDS011;6794;59.218;18.218;2022-07-23T06:52:25;2.20;;;1.37;;
13443;SDS011;6794;59.218;18.218;2022-07-23T06:54:51;2.57;;;1.57;;
13443;SDS011;6794;59.218;18.218;2022-07-23T06:57:17;1.60;;;1.50;;
13443;SDS011;6794;59.218;18.218;2022-07-23T06:59:43;2.60;;;1.70;;
13443;SDS011;6794;59.218;18.218;2022-07-23T07:02:09;1.60;;;1.50;;
13443;SDS011;6794;59.218;18.218;2022-07-23T07:04:35;1.67;;;1.57;;
13443;SDS011;6794;59.218;18.218;2022-07-23T07:07:01;1.80;;;1.40;;
13443;SDS011;6794;59.218;18.218;2022-07-23T07:09:27;1.50;;;1.40;;
13443;SDS011;6794;59.218;18.218;2022-07-23T07:11:53;1.73;;;1.40;;
13443;SDS011;6794;59.218;18.218;2022-07-23T07:14:19;1.53;;;1.40;;
13443;SDS011;6794;59.218;18.218;2022-07-23T07:16:45;1.70;;;1.60;;
13443;SDS011;6794;59.218;18.218;2022-07-23T07:19:11;1.17;;;1.07;;
13443;SDS011;6794;59.218;18.218;2022-07-23T07:21:37;1.53;;;1.13;;
13443;SDS011;6794;59.218;18.218;2022-07-23T07:24:04;2.13;;;1.40;;
13443;SDS011;6794;59.218;18.218;2022-07-23T07:26:30;1.30;;;1.20;;
13443;SDS011;6794;59.218;18.218;2022-07-23T07:28:56;2.47;;;1.50;;
13443;SDS011;6794;59.218;18.218;2022-07-23T07:31:22;1.90;;;1.40;;
13443;SDS011;6794;59.218;18.218;2022-07-23T07:33:48;2.53;;;1.30;;
13443;SDS011;6794;59.218;18.218;2022-07-23T07:36:14;1.57;;;1.47;;
13443;SDS011;6794;59.218;18.218;2022-07-23T07:38:40;1.33;;;1.23;;
13443;SDS011;6794;59.218;18.218;2022-07-23T07:41:07;1.77;;;1.20;;
13443;SDS011;6794;59.218;18.218;2022-07-23T07:43:35;1.37;;;1.27;;
13443;SDS011;6794;59.218;18.218;2022-07-23T07:46:01;1.63;;;1.30;;
13443;SDS011;6794;59.218;18.218;2022-07-23T07:48:27;1.57;;;1.27;;
13443;SDS011;6794;59.218;18.218;2022-07-23T07:50:53;1.90;;;1.10;;
13443;SDS011;6794;59.218;18.218;2022-07-23T07:53:19;1.30;;;1.20;;
13443;SDS011;6794;59.218;18.218;2022-07-23T07:55:45;1.93;;;1.10;;
13443;SDS011;6794;59.218;18.218;2022-07-23T07:58:11;0.87;;;0.87;;
13443;SDS011;6794;59.218;18.218;2022-07-23T08:00:37;1.10;;;1.00;;
13443;SDS011;6794;59.218;18.218;2022-07-23T08:03:03;0.90;;;0.90;;
13443;SDS011;6794;59.218;18.218;2022-07-23T08:05:29;0.90;;;0.90;;
13443;SDS011;6794;59.218;18.218;2022-07-23T08:07:56;1.17;;;1.03;;
13443;SDS011;6794;59.218;18.218;2022-07-23T08:10:22;0.93;;;0.90;;
13443;SDS011;6794;59.218;18.218;2022-07-23T08:12:49;1.40;;;1.00;;
13443;SDS011;6794;59.218;18.218;2022-07-23T08:15:17;0.80;;;0.80;;
13443;SDS011;6794;59.218;18.218;2022-07-23T08:17:43;0.87;;;0.87;;
13443;SDS011;6794;59.218;18.218;2022-07-23T08:20:10;1.10;;;0.80;;
13443;SDS011;6794;59.218;18.218;2022-07-23T08:22:43;0.80;;;0.80;;
13443;SDS011;6794;59.218;18.218;2022-07-23T08:25:10;0.70;;;0.70;;
13443;SDS011;6794;59.218;18.218;2022-07-23T08:27:36;0.70;;;0.70;;
13443;SDS011;6794;59.218;18.218;2022-07-23T08:30:02;1.17;;;1.00;;
13443;SDS011;6794;59.218;18.218;2022-07-23T08:32:28;0.80;;;0.80;;
13443;SDS011;6794;59.218;18.218;2022-07-23T08:34:55;0.80;;;0.80;;
13443;SDS011;6794;59.218;18.218;2022-07-23T08:37:21;0.80;;;0.80;;
13443;SDS011;6794;59.218;18.218;2022-07-23T08:39:47;0.70;;;0.70;;
13443;SDS011;6794;59.218;18.218;2022-07-23T08:42:13;0.90;;;0.90;;
13443;SDS011;6794;59.218;18.218;2022-07-23T08:44:40;0.80;;;0.80;;
13443;SDS011;6794;59.218;18.218;2022-07-23T08:47:09;0.93;;;0.90;;
13443;SDS011;6794;59.218;18.218;2022-07-23T08:49:35;1.03;;;0.97;;
13443;SDS011;6794;59.218;18.218;2022-07-23T08:52:01;0.93;;;0.90;;
13443;SDS011;6794;59.218;18.218;2022-07-23T08:54:27;0.80;;;0.80;;
13443;SDS011;6794;59.218;18.218;2022-07-23T08:56:53;0.67;;;0.67;;
13443;SDS011;6794;59.218;18.218;2022-07-23T08:59:19;1.00;;;0.90;;
13443;SDS011;6794;59.218;18.218;2022-07-23T09:01:45;0.80;;;0.80;;
13443;SDS011;6794;59.218;18.218;2022-07-23T09:04:11;1.50;;;0.90;;
13443;SDS011;6794;59.218;18.218;2022-07-23T09:06:40;0.80;;;0.80;;
13443;SDS011;6794;59.218;18.218;2022-07-23T09:09:16;0.70;;;0.70;;
13443;SDS011;6794;59.218;18.218;2022-07-23T09:11:45;0.70;;;0.70;;
13443;SDS011;6794;59.218;18.218;2022-07-23T09:14:11;1.17;;;0.90;;
13443;SDS011;6794;59.218;18.218;2022-07-23T09:16:37;1.63;;;0.80;;
13443;SDS011;6794;59.218;18.218;2022-07-23T09:19:04;0.70;;;0.70;;
13443;SDS011;6794;59.218;18.218;2022-07-23T09:21:35;0.80;;;0.80;;
13443;SDS011;6794;59.218;18.218;2022-07-23T09:24:02;1.10;;;0.90;;
13443;SDS011;6794;59.218;18.218;2022-07-23T09:26:30;0.80;;;0.80;;
13443;SDS011;6794;59.218;18.218;2022-07-23T09:31:32;0.77;;;0.77;;
13443;SDS011;6794;59.218;18.218;2022-07-23T09:34:12;0.70;;;0.70;;
13443;SDS011;6794;59.218;18.218;2022-07-23T09:36:39;0.70;;;0.70;;
13443;SDS011;6794;59.218;18.218;2022-07-23T09:39:05;1.37;;;0.90;;
13443;SDS011;6794;59.218;18.218;2022-07-23T09:41:35;0.80;;;0.80;;
13443;SDS011;6794;59.218;18.218;2022-07-23T09:44:08;1.90;;;0.90;;
13443;SDS011;6794;59.218;18.218;2022-07-23T09:46:35;0.70;;;0.70;;
13443;SDS011;6794;59.218;18.218;2022-07-23T09:49:09;0.80;;;0.80;;
13443;SDS011;6794;59.218;18.218;2022-07-23T09:51:45;0.90;;;0.90;;
13443;SDS011;6794;59.218;18.218;2022-07-23T09:54:22;0.90;;;0.90;;
13443;SDS011;6794;59.218;18.218;2022-07-23T09:56:51;0.73;;;0.63;;
13443;SDS011;6794;59.218;18.218;2022-07-23T09:59:17;0.77;;;0.73;;
13443;SDS011;6794;59.218;18.218;2022-07-23T10:01:44;0.70;;;0.70;;
13443;SDS011;6794;59.218;18.218;2022-07-23T10:04:11;0.80;;;0.80;;
13443;SDS011;6794;59.218;18.218;2022-07-23T10:06:37;0.60;;;0.60;;
13443;SDS011;6794;59.218;18.218;2022-07-23T10:09:04;0.80;;;0.80;;
13443;SDS011;6794;59.218;18.218;2022-07-23T10:11:31;1.10;;;0.90;;
13443;SDS011;6794;59.218;18.218;2022-07-23T10:13:57;1.00;;;1.00;;
13443;SDS011;6794;59.218;18.218;2022-07-23T10:16:25;0.70;;;0.70;;
13443;SDS011;6794;59.218;18.218;2022-07-23T10:18:51;0.70;;;0.70;;
13443;SDS011;6794;59.218;18.218;2022-07-23T10:26:53;0.67;;;0.67;;
13443;SDS011;6794;59.218;18.218;2022-07-23T10:32:19;1.23;;;0.70;;
13443;SDS011;6794;59.218;18.218;2022-07-23T10:34:58;0.70;;;0.70;;
13443;SDS011;6794;59.218;18.218;2022-07-23T10:37:30;0.77;;;0.77;;
13443;SDS011;6794;59.218;18.218;2022-07-23T10:40:14;0.67;;;0.67;;
13443;SDS011;6794;59.218;18.218;2022-07-23T10:42:42;0.93;;;0.83;;
13443;SDS011;6794;59.218;18.218;2022-07-23T10:47:49;0.77;;;0.77;;
13443;SDS011;6794;59.218;18.218;2022-07-23T10:58:01;0.70;;;0.70;;
13443;SDS011;6794;59.218;18.218;2022-07-23T11:00:29;0.67;;;0.67;;
13443;SDS011;6794;59.218;18.218;2022-07-23T11:02:56;0.70;;;0.60;;
13443;SDS011;6794;59.218;18.218;2022-07-23T11:05:38;1.27;;;0.70;;
13443;SDS011;6794;59.218;18.218;2022-07-23T11:10:36;0.70;;;0.70;;
13443;SDS011;6794;59.218;18.218;2022-07-23T11:34:32;0.70;;;0.70;;
13443;SDS011;6794;59.218;18.218;2022-07-23T11:36:59;0.90;;;0.57;;
13443;SDS011;6794;59.218;18.218;2022-07-23T11:39:26;0.50;;;0.50;;
13443;SDS011;6794;59.218;18.218;2022-07-23T11:41:53;1.33;;;0.90;;
13443;SDS011;6794;59.218;18.218;2022-07-23T11:44:29;0.80;;;0.80;;
13443;SDS011;6794;59.218;18.218;2022-07-23T11:46:59;0.90;;;0.70;;
13443;SDS011;6794;59.218;18.218;2022-07-23T11:49:25;1.10;;;0.80;;
13443;SDS011;6794;59.218;18.218;2022-07-23T11:57:16;0.80;;;0.80;;
13443;SDS011;6794;59.218;18.218;2022-07-23T11:59:43;0.70;;;0.70;;
13443;SDS011;6794;59.218;18.218;2022-07-23T12:02:09;0.87;;;0.87;;
13443;SDS011;6794;59.218;18.218;2022-07-23T12:07:21;0.80;;;0.80;;
13443;SDS011;6794;59.218;18.218;2022-07-23T12:09:48;1.10;;;0.90;;
13443;SDS011;6794;59.218;18.218;2022-07-23T12:12:14;1.43;;;0.83;;
13443;SDS011;6794;59.218;18.218;2022-07-23T12:14:55;0.87;;;0.70;;
13443;SDS011;6794;59.218;18.218;2022-07-23T12:17:22;0.80;;;0.70;;
13443;SDS011;6794;59.218;18.218;2022-07-23T12:19:53;0.60;;;0.60;;
13443;SDS011;6794;59.218;18.218;2022-07-23T12:22:19;0.50;;;0.50;;
13443;SDS011;6794;59.218;18.218;2022-07-23T12:24:53;0.70;;;0.70;;
13443;SDS011;6794;59.218;18.218;2022-07-23T12:27:22;0.50;;;0.50;;
13443;SDS011;6794;59.218;18.218;2022-07-23T12:29:48;0.60;;;0.60;;
13443;SDS011;6794;59.218;18.218;2022-07-23T12:32:21;0.87;;;0.80;;
13443;SDS011;6794;59.218;18.218;2022-07-23T12:34:49;0.50;;;0.50;;
13443;SDS011;6794;59.218;18.218;2022-07-23T12:37:28;2.13;;;0.50;;
13443;SDS011;6794;59.218;18.218;2022-07-23T12:39:54;0.40;;;0.40;;
13443;SDS011;6794;59.218;18.218;2022-07-23T12:42:20;0.90;;;0.90;;
13443;SDS011;6794;59.218;18.218;2022-07-23T12:47:50;1.53;;;1.10;;
13443;SDS011;6794;59.218;18.218;2022-07-23T12:53:28;1.83;;;0.80;;
13443;SDS011;6794;59.218;18.218;2022-07-23T12:55:59;0.80;;;0.80;;
13443;SDS011;6794;59.218;18.218;2022-07-23T12:58:25;0.90;;;0.90;;
13443;SDS011;6794;59.218;18.218;2022-07-23T13:00:56;2.27;;;0.90;;
13443;SDS011;6794;59.218;18.218;2022-07-23T13:05:51;3.10;;;0.90;;
13443;SDS011;6794;59.218;18.218;2022-07-23T13:08:17;1.77;;;1.10;;
13443;SDS011;6794;59.218;18.218;2022-07-23T13:10:43;1.00;;;0.90;;
13443;SDS011;6794;59.218;18.218;2022-07-23T13:13:13;1.27;;;1.13;;
13443;SDS011;6794;59.218;18.218;2022-07-23T13:15:39;1.93;;;1.10;;
13443;SDS011;6794;59.218;18.218;2022-07-23T13:18:05;1.40;;;1.03;;
13443;SDS011;6794;59.218;18.218;2022-07-23T13:20:31;2.33;;;1.10;;
13443;SDS011;6794;59.218;18.218;2022-07-23T13:22:59;1.17;;;1.13;;
13443;SDS011;6794;59.218;18.218;2022-07-23T13:25:25;1.93;;;1.40;;
13443;SDS011;6794;59.218;18.218;2022-07-23T13:27:51;2.03;;;1.20;;
13443;SDS011;6794;59.218;18.218;2022-07-23T13:30:18;1.20;;;1.10;;
13443;SDS011;6794;59.218;18.218;2022-07-23T13:32:44;1.93;;;1.23;;
13443;SDS011;6794;59.218;18.218;2022-07-23T13:35:10;1.20;;;1.00;;
13443;SDS011;6794;59.218;18.218;2022-07-23T13:37:37;1.37;;;1.17;;
13443;SDS011;6794;59.218;18.218;2022-07-23T13:40:03;1.47;;;1.20;;
13443;SDS011;6794;59.218;18.218;2022-07-23T13:42:29;2.53;;;1.50;;
13443;SDS011;6794;59.218;18.218;2022-07-23T13:44:55;1.25;;;1.15;;
13443;SDS011;6794;59.218;18.218;2022-07-23T13:47:21;1.40;;;1.30;;
13443;SDS011;6794;59.218;18.218;2022-07-23T13:49:47;2.03;;;1.20;;
13443;SDS011;6794;59.218;18.218;2022-07-23T13:52:13;1.70;;;1.60;;
13443;SDS011;6794;59.218;18.218;2022-07-23T13:54:40;1.20;;;1.10;;
13443;SDS011;6794;59.218;18.218;2022-07-23T13:57:06;1.40;;;1.30;;
13443;SDS011;6794;59.218;18.218;2022-07-23T13:59:34;1.30;;;1.20;;
13443;SDS011;6794;59.218;18.218;2022-07-23T14:02:00;1.70;;;1.20;;
13443;SDS011;6794;59.218;18.218;2022-07-23T14:04:26;2.60;;;1.00;;
13443;SDS011;6794;59.218;18.218;2022-07-23T14:06:52;1.67;;;1.30;;
13443;SDS011;6794;59.218;18.218;2022-07-23T14:09:18;2.30;;;1.50;;
13443;SDS011;6794;59.218;18.218;2022-07-23T14:11:44;1.53;;;1.30;;
13443;SDS011;6794;59.218;18.218;2022-07-23T14:14:10;2.83;;;1.30;;
13443;SDS011;6794;59.218;18.218;2022-07-23T14:16:36;2.77;;;1.40;;
13443;SDS011;6794;59.218;18.218;2022-07-23T14:19:02;1.30;;;1.20;;
13443;SDS011;6794;59.218;18.218;2022-07-23T14:21:28;2.00;;;1.33;;
13443;SDS011;6794;59.218;18.218;2022-07-23T14:23:54;1.60;;;1.50;;
13443;SDS011;6794;59.218;18.218;2022-07-23T14:26:20;1.80;;;1.40;;
13443;SDS011;6794;59.218;18.218;2022-07-23T14:28:46;1.60;;;1.30;;
13443;SDS011;6794;59.218;18.218;2022-07-23T14:31:13;1.33;;;1.23;;
13443;SDS011;6794;59.218;18.218;2022-07-23T14:33:39;1.27;;;1.17;;
13443;SDS011;6794;59.218;18.218;2022-07-23T14:36:05;1.10;;;1.10;;
13443;SDS011;6794;59.218;18.218;2022-07-23T14:38:31;1.40;;;1.20;;
13443;SDS011;6794;59.218;18.218;2022-07-23T14:40:57;1.30;;;1.20;;
13443;SDS011;6794;59.218;18.218;2022-07-23T14:43:23;1.47;;;1.10;;
13443;SDS011;6794;59.218;18.218;2022-07-23T14:45:49;1.43;;;0.90;;
13443;SDS011;6794;59.218;18.218;2022-07-23T14:48:15;1.63;;;1.10;;
13443;SDS011;6794;59.218;18.218;2022-07-23T14:50:41;1.63;;;1.30;;
13443;SDS011;6794;59.218;18.218;2022-07-23T14:53:07;1.13;;;1.00;;
13443;SDS011;6794;59.218;18.218;2022-07-23T14:55:34;1.20;;;1.10;;
13443;SDS011;6794;59.218;18.218;2022-07-23T14:58:00;1.93;;;1.20;;
13443;SDS011;6794;59.218;18.218;2022-07-23T15:00:26;1.80;;;1.20;;
13443;SDS011;6794;59.218;18.218;2022-07-23T15:02:52;0.97;;;0.97;;
13443;SDS011;6794;59.218;18.218;2022-07-23T15:05:18;1.10;;;1.10;;
13443;SDS011;6794;59.218;18.218;2022-07-23T15:07:44;1.63;;;1.50;;
13443;SDS011;6794;59.218;18.218;2022-07-23T15:10:11;1.90;;;1.30;;
13443;SDS011;6794;59.218;18.218;2022-07-23T15:12:37;1.33;;;1.10;;
13443;SDS011;6794;59.218;18.218;2022-07-23T15:15:03;1.37;;;1.00;;
13443;SDS011;6794;59.218;18.218;2022-07-23T15:17:29;1.20;;;1.10;;
13443;SDS011;6794;59.218;18.218;2022-07-23T15:19:55;1.30;;;1.20;;
13443;SDS011;6794;59.218;18.218;2022-07-23T15:22:22;1.00;;;1.00;;
13443;SDS011;6794;59.218;18.218;2022-07-23T15:24:48;1.23;;;1.10;;
13443;SDS011;6794;59.218;18.218;2022-07-23T15:27:14;1.27;;;1.03;;
13443;SDS011;6794;59.218;18.218;2022-07-23T15:29:42;1.97;;;1.30;;
13443;SDS011;6794;59.218;18.218;2022-07-23T15:32:08;1.23;;;1.10;;
13443;SDS011;6794;59.218;18.218;2022-07-23T15:34:35;1.70;;;1.60;;
13443;SDS011;6794;59.218;18.218;2022-07-23T15:37:02;2.50;;;1.50;;
13443;SDS011;6794;59.218;18.218;2022-07-23T15:39:30;2.03;;;1.43;;
13443;SDS011;6794;59.218;18.218;2022-07-23T15:41:57;2.23;;;1.50;;
13443;SDS011;6794;59.218;18.218;2022-07-23T15:44:23;2.10;;;1.50;;